Time;durP1;ratioP1;P1;durP2;ratioP2;P2;SDS_P1;SDS_P2;PMS_P1;PMS_P2;Temp;Humidity;BMP_temperature;BMP_pressure;BME280_temperature;BME280_humidity;BME280_pressure;Samples;Min_cycle;Max_cycle;Signal;HPM_P1;HPM_P2
2022/12/28 00:01:16;;;;;;;12.82;6.30;;;205.10;2252.80;;;;;;5019287;28;20120;-85
2022/12/28 00:03:42;;;;;;;15.38;7.38;;;205.00;2252.80;;;;;;5020460;28;20041;-85
2022/12/28 00:06:08;;;;;;;15.40;6.85;;;205.00;2252.80;;;;;;5021195;28;20022;-85
2022/12/28 00:08:33;;;;;;;;;;;204.90;2252.80;;;;;;5031091;28;20026;-86
2022/12/28 00:11:05;;;;;;;12.10;5.82;;;204.90;2252.80;;;;;;5025317;28;19905;-86
2022/12/28 00:13:32;;;;;;;16.08;7.38;;;204.80;2252.80;;;;;;5020827;28;20504;-86
2022/12/28 00:16:04;;;;;;;22.63;11.20;;;180.10;2252.80;;;;;;5016901;28;20025;-86
2022/12/28 00:18:33;;;;;;;28.17;16.08;;;204.80;2252.80;;;;;;5018247;28;20022;-82
2022/12/28 00:21:00;;;;;;;22.77;12.82;;;180.10;2252.80;;;;;;5024818;28;20056;-87
2022/12/28 00:23:26;;;;;;;23.50;12.23;;;180.10;2252.80;;;;;;5022532;28;20482;-86
2022/12/28 00:25:52;;;;;;;19.80;8.15;;;180.10;2252.80;;;;;;5027579;28;20029;-87
2022/12/28 00:28:19;;;;;;;11.70;5.45;;;180.00;2252.80;;;;;;5021851;28;20554;-85
2022/12/28 00:30:44;;;;;;;16.35;6.63;;;180.00;2252.80;;;;;;5028181;28;20032;-87
2022/12/28 00:33:10;;;;;;;;;;;180.10;2252.80;;;;;;5020743;28;20018;-86
2022/12/28 00:35:36;;;;;;;9.57;4.70;;;180.10;2252.80;;;;;;5024899;28;19978;-87
2022/12/28 00:38:01;;;;;;;;;;;180.00;2252.80;;;;;;5030777;28;20037;-86
2022/12/28 00:40:27;;;;;;;16.85;5.47;;;179.90;2252.80;;;;;;5032793;28;19913;-85
2022/12/28 00:42:52;;;;;;;;;;;179.80;2252.80;;;;;;5033018;28;20033;-85
2022/12/28 00:45:18;;;;;;;9.00;4.43;;;179.90;2252.80;;;;;;5051816;28;19920;-86
2022/12/28 00:47:44;;;;;;;;;;;179.90;2252.80;;;;;;5025869;28;20490;-85
2022/12/28 00:50:09;;;;;;;10.20;3.80;;;179.90;2252.80;;;;;;5027325;28;19911;-84
2022/12/28 00:52:35;;;;;;;;;;;179.90;2252.80;;;;;;5029749;28;20053;-85
2022/12/28 00:55:01;;;;;;;11.68;4.60;;;179.90;2252.80;;;;;;5024851;28;19921;-85
2022/12/28 00:57:26;;;;;;;;;;;179.80;2252.80;;;;;;5024374;28;20022;-85
2022/12/28 00:59:52;;;;;;;7.75;4.00;;;179.90;2252.80;;;;;;5026450;28;20381;-84
2022/12/28 01:02:18;;;;;;;;;;;180.00;2252.80;;;;;;5022751;28;20025;-86
2022/12/28 01:04:43;;;;;;;20.20;7.75;;;179.90;2252.80;;;;;;5060410;28;19905;-85
2022/12/28 01:07:09;;;;;;;;;;;179.60;2252.80;;;;;;5068335;28;20457;-86
2022/12/28 01:09:34;;;;;;;16.77;6.97;;;179.50;2252.80;;;;;;5032596;28;19905;-86
2022/12/28 01:12:00;;;;;;;;;;;179.50;2252.80;;;;;;5032615;28;20100;-85
2022/12/28 01:14:26;;;;;;;9.98;4.78;;;179.40;2252.80;;;;;;5063134;28;20357;-86
2022/12/28 01:16:51;;;;;;;;;;;179.50;2252.80;;;;;;5033145;28;20030;-86
2022/12/28 01:19:21;;;;;;;14.45;5.22;;;179.50;2252.80;;;;;;5062754;28;19913;-86
2022/12/28 01:21:49;;;;;;;11.02;4.97;;;179.50;2252.80;;;;;;5025277;28;20050;-86
2022/12/28 01:24:15;;;;;;;10.45;4.07;;;179.30;2252.80;;;;;;5023035;28;20080;-86
2022/12/28 01:26:41;;;;;;;10.85;5.05;;;179.30;2252.80;;;;;;5028265;28;20382;-85
2022/12/28 01:29:06;;;;;;;;;;;179.50;2252.80;;;;;;5029477;28;20108;-86
2022/12/28 01:31:32;;;;;;;8.27;4.47;;;179.60;2252.80;;;;;;5022585;28;20020;-85
2022/12/28 01:33:58;;;;;;;9.40;4.72;;;179.60;2252.80;;;;;;5030667;28;20712;-85
2022/12/28 01:36:25;;;;;;;;;;;179.60;2252.80;;;;;;5027406;28;20030;-86
2022/12/28 01:38:54;;;;;;;6.53;3.67;;;179.60;2252.80;;;;;;5032765;28;19913;-86
2022/12/28 01:41:20;;;;;;;12.68;6.07;;;179.50;2252.80;;;;;;5024835;28;20030;-86
2022/12/28 01:43:52;;;;;;;12.60;5.15;;;179.60;2252.80;;;;;;5034412;28;20441;-85
2022/12/28 01:46:28;;;;;;;13.52;6.60;;;179.70;2252.80;;;;;;5035714;28;20018;-85
2022/12/28 01:49:01;;;;;;;;;;;179.70;2252.80;;;;;;5034183;28;20073;-85
2022/12/28 01:51:30;;;;;;;15.73;6.88;;;179.70;2252.80;;;;;;5023567;28;19912;-86
2022/12/28 01:53:58;;;;;;;17.38;8.80;;;179.60;2252.80;;;;;;5030958;28;20021;-85
2022/12/28 01:56:25;;;;;;;11.32;5.90;;;179.50;2252.80;;;;;;5034773;28;20037;-84
2022/12/28 01:58:51;;;;;;;11.35;5.32;;;179.30;2252.80;;;;;;5030167;28;20042;-84
2022/12/28 02:01:17;;;;;;;;;;;154.50;2252.80;;;;;;5029200;28;20036;-86
2022/12/28 02:03:43;;;;;;;9.68;4.40;;;154.20;2252.80;;;;;;5027593;28;19928;-85
2022/12/28 02:06:11;;;;;;;;;;;154.20;2252.80;;;;;;5022558;28;20502;-84
2022/12/28 02:09:03;;;;;;;8.95;4.82;;;154.30;2252.80;;;;;;5030719;28;19905;-85
2022/12/28 02:11:30;;;;;;;12.63;5.28;;;154.40;2252.80;;;;;;5030276;28;20109;-83
2022/12/28 02:13:57;;;;;;;9.95;5.10;;;154.50;2252.80;;;;;;5031067;28;20379;-85
2022/12/28 02:16:23;;;;;;;9.40;4.88;;;179.20;2252.80;;;;;;5021766;28;20042;-84
2022/12/28 02:18:49;;;;;;;;;;;179.20;2252.80;;;;;;5025121;28;20082;-85
2022/12/28 02:21:20;;;;;;;9.40;5.05;;;179.20;2252.80;;;;;;5029124;28;19920;-81
2022/12/28 02:24:23;;;;;;;11.40;4.47;;;179.30;2252.80;;;;;;5025431;28;20033;-86
2022/12/28 02:27:33;;;;;;;11.43;5.30;;;179.30;2252.80;;;;;;5030648;28;20105;-85
2022/12/28 02:30:11;;;;;;;12.35;5.63;;;179.40;2252.80;;;;;;5009663;28;20116;-85
2022/12/28 02:32:46;;;;;;;21.85;8.27;;;179.30;2252.80;;;;;;5022295;28;20034;-84
2022/12/28 02:35:36;;;;;;;20.42;8.70;;;179.20;2252.80;;;;;;5019506;28;20188;-85
2022/12/28 02:38:11;;;;;;;27.75;9.85;;;154.50;2252.80;;;;;;5033012;28;20029;-84
2022/12/28 02:40:45;;;;;;;38.42;12.18;;;154.50;2252.80;;;;;;5020446;28;20069;-86
2022/12/28 02:43:12;;;;;;;27.95;11.50;;;179.20;2252.80;;;;;;5015689;28;20217;-85
2022/12/28 02:51:59;;;;;;;31.08;13.45;;;179.20;2252.80;;;;;;5031321;28;20142;-85
2022/12/28 02:57:49;;;;;;;;;;;154.20;2252.80;;;;;;5031326;28;20104;-84
2022/12/28 03:00:17;;;;;;;17.88;8.60;;;154.30;2252.80;;;;;;5016283;28;19913;-85
2022/12/28 03:03:11;;;;;;;11.55;5.22;;;154.20;2252.80;;;;;;5016622;28;20034;-85
2022/12/28 03:09:16;;;;;;;11.57;5.65;;;154.20;2252.80;;;;;;5026024;28;20056;-84
2022/12/28 03:11:54;;;;;;;10.43;5.18;;;154.30;2252.80;;;;;;5026562;28;20033;-84
2022/12/28 03:14:27;;;;;;;7.22;3.95;;;154.40;2252.80;;;;;;5023080;28;20033;-84
2022/12/28 03:31:17;;;;;;;;;;;179.20;2252.80;;;;;;5012319;28;20044;-83
2022/12/28 03:33:48;;;;;;;16.95;7.50;;;154.50;2252.80;;;;;;4988314;28;19909;-84
2022/12/28 03:36:55;;;;;;;23.85;13.52;;;154.50;2252.80;;;;;;5029213;28;20065;-85
2022/12/28 03:39:29;;;;;;;20.25;10.73;;;154.50;2252.80;;;;;;4993106;28;20042;-85
2022/12/28 03:44:57;;;;;;;23.75;13.70;;;179.20;2252.80;;;;;;4991348;28;20598;-85
2022/12/28 03:47:25;;;;;;;22.40;13.90;;;154.50;2252.80;;;;;;4992951;28;20616;-85
2022/12/28 03:49:51;;;;;;;29.40;14.93;;;154.40;2252.80;;;;;;4992702;28;20031;-85
2022/12/28 03:52:17;;;;;;;;;;;154.30;2252.80;;;;;;4993369;28;20125;-85
2022/12/28 03:54:42;;;;;;;30.50;17.00;;;154.30;2252.80;;;;;;4992739;28;19975;-82
2022/12/28 03:57:08;;;;;;;;;;;154.30;2252.80;;;;;;4976914;28;20062;-85
2022/12/28 03:59:34;;;;;;;10.32;4.60;;;154.30;2252.80;;;;;;5009070;28;19913;-85
2022/12/28 04:01:59;;;;;;;;;;;154.30;2252.80;;;;;;4969053;28;20053;-86
2022/12/28 04:04:25;;;;;;;8.82;3.80;;;154.40;2252.80;;;;;;5009007;28;19912;-85
2022/12/28 04:06:50;;;;;;;;;;;154.40;2252.80;;;;;;5009613;28;20072;-85
2022/12/28 04:09:16;;;;;;;7.97;4.45;;;154.30;2252.80;;;;;;4993103;28;20373;-86
2022/12/28 04:11:42;;;;;;;;;;;154.30;2252.80;;;;;;4969005;28;20062;-85
2022/12/28 04:14:07;;;;;;;16.45;6.93;;;154.20;2252.80;;;;;;5024909;28;19905;-85
2022/12/28 04:16:33;;;;;;;;;;;154.10;2252.80;;;;;;5019979;28;20064;-85
2022/12/28 04:18:59;;;;;;;17.05;8.57;;;153.80;2252.80;;;;;;5025577;28;19913;-86
2022/12/28 04:21:24;;;;;;;;;;;153.80;2252.80;;;;;;5025781;28;20026;-85
2022/12/28 04:23:50;;;;;;;20.30;7.63;;;153.70;2252.80;;;;;;5054360;28;19978;-86
2022/12/28 04:26:16;;;;;;;;;;;153.80;2252.80;;;;;;5023978;28;20030;-85
2022/12/28 04:28:42;;;;;;;17.05;7.07;;;153.90;2252.80;;;;;;5028394;28;19927;-86
2022/12/28 04:31:10;;;;;;;;;;;153.90;2252.80;;;;;;5019548;28;20030;-85
2022/12/28 04:33:37;;;;;;;10.82;5.15;;;153.90;2252.80;;;;;;5022744;28;19905;-85
2022/12/28 04:36:07;;;;;;;10.20;4.68;;;154.00;2252.80;;;;;;5024545;28;20029;-84
2022/12/28 04:38:34;;;;;;;8.18;5.50;;;154.10;2252.80;;;;;;5029157;28;20025;-84
2022/12/28 04:41:00;;;;;;;10.90;4.85;;;154.00;2252.80;;;;;;5026259;28;20104;-85
2022/12/28 04:43:25;;;;;;;;;;;153.90;2252.80;;;;;;5027044;28;20033;-84
2022/12/28 04:45:56;;;;;;;12.80;6.75;;;128.90;2252.80;;;;;;5029711;28;19905;-85
2022/12/28 04:48:22;;;;;;;17.67;6.25;;;128.70;2252.80;;;;;;5058989;28;20076;-84
2022/12/28 04:50:47;;;;;;;;;;;128.60;2252.80;;;;;;5024057;28;20030;-84
2022/12/28 04:53:13;;;;;;;23.38;7.45;;;128.40;2252.80;;;;;;5024102;28;19977;-84
2022/12/28 04:55:38;;;;;;;;;;;128.30;2252.80;;;;;;5026341;28;20045;-85
2022/12/28 04:58:04;;;;;;;25.35;11.02;;;128.20;2252.80;;;;;;5060325;28;20032;-84
2022/12/28 05:00:29;;;;;;;;;;;128.00;2252.80;;;;;;5024806;28;20516;-81
2022/12/28 05:02:58;;;;;;;18.38;6.15;;;128.00;2252.80;;;;;;5017017;28;20039;-85
2022/12/28 05:05:25;;;;;;;14.90;5.60;;;103.20;2227.20;;;;;;5048956;28;20022;-85
2022/12/28 05:07:50;;;;;;;15.48;6.97;;;103.30;2227.20;;;;;;5015517;28;20033;-84
2022/12/28 05:10:16;;;;;;;;;;;103.00;2227.20;;;;;;5017178;28;20022;-85
2022/12/28 05:12:42;;;;;;;14.80;6.30;;;103.10;2227.20;;;;;;5015707;28;19909;-83
2022/12/28 05:15:07;;;;;;;;;;;103.20;2227.20;;;;;;5049378;28;20364;-81
2022/12/28 05:17:33;;;;;;;16.13;7.72;;;128.00;2252.80;;;;;;5032086;28;19906;-81
2022/12/28 05:19:59;;;;;;;;;;;128.00;2252.80;;;;;;5015898;28;20034;-85
2022/12/28 05:22:25;;;;;;;23.25;9.07;;;103.30;2227.20;;;;;;5048551;28;19906;-81
2022/12/28 05:24:50;;;;;;;;;;;128.10;2252.80;;;;;;5015945;28;20050;-84
2022/12/28 05:27:16;;;;;;;15.75;7.25;;;128.20;2252.80;;;;;;5048717;28;19966;-85
2022/12/28 05:29:42;;;;;;;;;;;128.30;2252.80;;;;;;5015765;28;20036;-85
2022/12/28 05:32:07;;;;;;;14.07;6.75;;;128.40;2252.80;;;;;;5048713;28;20417;-80
2022/12/28 05:34:33;;;;;;;;;;;128.00;2252.80;;;;;;5015174;28;20038;-81
2022/12/28 05:36:59;;;;;;;21.63;7.88;;;103.30;2227.20;;;;;;5031749;28;20301;-84
2022/12/28 05:39:24;;;;;;;;;;;128.00;2252.80;;;;;;5015657;28;20052;-81
2022/12/28 05:41:50;;;;;;;12.88;6.80;;;128.10;2252.80;;;;;;5053735;28;20018;-81
2022/12/28 05:44:16;;;;;;;;;;;128.10;2252.80;;;;;;5031323;28;20037;-81
2022/12/28 05:46:41;;;;;;;10.80;5.75;;;128.00;2252.80;;;;;;5028037;28;19905;-84
2022/12/28 05:49:07;;;;;;;;;;;103.00;2227.20;;;;;;5019811;28;20034;-84
2022/12/28 05:51:33;;;;;;;11.95;5.18;;;103.10;2227.20;;;;;;5032900;28;19905;-81
2022/12/28 05:53:59;;;;;;;;;;;103.20;2227.20;;;;;;5023567;28;20513;-84
2022/12/28 05:56:28;;;;;;;10.75;4.65;;;103.30;2227.20;;;;;;5024501;28;19959;-84
2022/12/28 05:59:00;;;;;;;10.05;4.22;;;128.00;2252.80;;;;;;5020066;28;20346;-81
2022/12/28 06:01:32;;;;;;;8.68;4.55;;;103.20;2227.20;;;;;;5034243;28;20041;-84
2022/12/28 06:04:03;;;;;;;17.08;4.93;;;103.20;2227.20;;;;;;5020034;28;20105;-85
2022/12/28 06:06:30;;;;;;;17.85;8.68;;;103.10;2227.20;;;;;;5028562;28;20128;-82
2022/12/28 06:08:56;;;;;;;15.57;6.53;;;103.10;2227.20;;;;;;5025637;28;20021;-80
2022/12/28 06:11:23;;;;;;;;;;;103.10;2227.20;;;;;;5027346;28;20368;-84
2022/12/28 06:13:49;;;;;;;12.00;4.68;;;103.10;2227.20;;;;;;5024652;28;19905;-84
2022/12/28 06:16:26;;;;;;;12.98;4.75;;;103.20;2227.20;;;;;;5022735;28;20021;-81
2022/12/28 06:18:52;;;;;;;16.27;3.97;;;103.00;2227.20;;;;;;5028068;28;20539;-82
2022/12/28 06:21:22;;;;;;;8.95;4.13;;;102.80;2227.20;;;;;;5017780;28;20034;-80
2022/12/28 06:23:48;;;;;;;8.40;4.68;;;102.80;2227.20;;;;;;5031483;28;20128;-85
2022/12/28 06:26:15;;;;;;;;;;;102.90;2227.20;;;;;;5019411;28;20110;-81
2022/12/28 06:28:41;;;;;;;9.15;4.30;;;102.90;2227.20;;;;;;5020427;28;19909;-80
2022/12/28 06:31:15;;;;;;;14.40;4.30;;;102.90;2227.20;;;;;;5024362;28;20022;-84
2022/12/28 06:33:41;;;;;;;14.52;4.70;;;103.10;2227.20;;;;;;5023602;28;20030;-84
2022/12/28 06:36:12;;;;;;;12.75;4.35;;;103.20;2227.20;;;;;;5030462;28;20034;-84
2022/12/28 06:38:38;;;;;;;10.77;5.25;;;103.20;2227.20;;;;;;5018462;28;20037;-83
2022/12/28 06:41:04;;;;;;;;;;;103.30;2227.20;;;;;;5022991;28;20049;-84
2022/12/28 06:43:32;;;;;;;14.00;4.97;;;103.30;2227.20;;;;;;5028904;28;19909;-82
2022/12/28 06:45:58;;;;;;;19.70;10.43;;;103.20;2227.20;;;;;;5019405;28;20030;-85
2022/12/28 06:48:23;;;;;;;;;;;102.90;2227.20;;;;;;5023726;28;20032;-83
2022/12/28 06:50:59;;;;;;;10.40;4.72;;;103.20;2227.20;;;;;;5022177;28;19906;-84
2022/12/28 06:53:27;;;;;;;12.07;4.78;;;103.30;2227.20;;;;;;5028532;28;20470;-85
2022/12/28 06:55:58;;;;;;;14.55;4.68;;;103.30;2227.20;;;;;;5025839;28;20115;-83
2022/12/28 06:58:25;;;;;;;11.00;4.47;;;128.00;2252.80;;;;;;5026162;28;20199;-80
2022/12/28 07:00:51;;;;;;;12.45;3.95;;;128.10;2252.80;;;;;;5030709;28;20060;-80
2022/12/28 07:03:17;;;;;;;9.85;3.75;;;103.10;2227.20;;;;;;5020073;28;20689;-81
2022/12/28 07:05:43;;;;;;;;;;;103.20;2227.20;;;;;;5030309;28;20033;-80
2022/12/28 07:08:09;;;;;;;10.13;4.90;;;102.90;2227.20;;;;;;5061333;28;19905;-81
2022/12/28 07:10:36;;;;;;;12.70;4.97;;;102.90;2227.20;;;;;;5023702;28;20026;-81
2022/12/28 07:13:02;;;;;;;13.25;6.70;;;103.00;2227.20;;;;;;5025211;28;20528;-82
2022/12/28 07:15:28;;;;;;;11.95;4.05;;;103.00;2227.20;;;;;;5023028;28;20030;-86
2022/12/28 07:17:54;;;;;;;;;;;103.10;2227.20;;;;;;5029617;28;20160;-85
2022/12/28 07:20:19;;;;;;;14.95;4.80;;;103.10;2227.20;;;;;;5030893;28;19920;-83
2022/12/28 07:22:45;;;;;;;;;;;103.30;2227.20;;;;;;5016202;28;20040;-78
2022/12/28 07:25:11;;;;;;;11.05;5.15;;;103.30;2227.20;;;;;;5016926;28;20357;-77
2022/12/28 07:27:36;;;;;;;;;;;103.20;2227.20;;;;;;5023042;28;20022;-79
2022/12/28 07:30:03;;;;;;;10.18;4.05;;;128.00;2252.80;;;;;;5042096;28;19932;-81
2022/12/28 07:32:29;;;;;;;11.70;4.93;;;128.10;2252.80;;;;;;5029210;28;20079;-79
2022/12/28 07:34:54;;;;;;;;;;;128.10;2252.80;;;;;;5060523;28;20025;-79
2022/12/28 07:37:20;;;;;;;16.08;5.30;;;128.20;2252.80;;;;;;5020905;28;19905;-79
2022/12/28 07:39:46;;;;;;;;;;;128.30;2252.80;;;;;;5056285;28;20034;-80
2022/12/28 07:42:11;;;;;;;9.77;3.83;;;128.40;2252.80;;;;;;5028171;28;20334;-82
2022/12/28 07:44:40;;;;;;;;;;;128.60;2252.80;;;;;;5024350;28;20029;-80
2022/12/28 07:47:06;;;;;;;10.15;4.32;;;128.80;2252.80;;;;;;5040602;28;19905;-78
2022/12/28 07:49:33;;;;;;;11.35;5.07;;;128.90;2252.80;;;;;;5030490;28;20021;-76
2022/12/28 07:51:58;;;;;;;;;;;153.80;2252.80;;;;;;5027910;28;20041;-81
2022/12/28 07:54:24;;;;;;;7.32;3.60;;;154.00;2252.80;;;;;;5027092;28;19921;-80
2022/12/28 07:56:49;;;;;;;;;;;153.90;2252.80;;;;;;5062286;28;20028;-79
2022/12/28 07:59:15;;;;;;;9.52;5.40;;;153.90;2252.80;;;;;;5026579;28;19971;-80
2022/12/28 08:01:41;;;;;;;;;;;153.90;2252.80;;;;;;5058649;28;20112;-81
2022/12/28 08:04:12;;;;;;;8.98;4.38;;;153.90;2252.80;;;;;;5019466;28;19909;-83
2022/12/28 08:06:41;;;;;;;11.07;5.15;;;153.80;2252.80;;;;;;5024277;28;20100;-84
2022/12/28 08:09:08;;;;;;;12.30;5.05;;;153.90;2252.80;;;;;;5022981;28;20053;-85
2022/12/28 08:11:37;;;;;;;11.50;4.68;;;154.10;2252.80;;;;;;5050431;28;20045;-81
2022/12/28 08:14:04;;;;;;;9.52;4.88;;;154.20;2252.80;;;;;;5027276;28;20026;-85
2022/12/28 08:16:36;;;;;;;10.43;5.07;;;154.00;2252.80;;;;;;5029650;28;20108;-82
2022/12/28 08:19:02;;;;;;;11.68;5.55;;;154.10;2252.80;;;;;;5026190;28;20029;-80
2022/12/28 08:21:29;;;;;;;;;;;154.00;2252.80;;;;;;5057566;28;20048;-86
2022/12/28 08:23:54;;;;;;;;;;;154.10;2252.80;;;;;;5024648;28;19916;-82
2022/12/28 08:26:21;;;;;;;12.57;6.30;;;154.10;2252.80;;;;;;5021918;28;19935;-77
2022/12/28 08:28:49;;;;;;;11.00;5.63;;;154.10;2252.80;;;;;;5014744;28;20033;-81
2022/12/28 08:31:23;;;;;;;13.45;5.07;;;154.30;2252.80;;;;;;5027337;28;20026;-83
2022/12/28 08:33:51;;;;;;;8.82;4.50;;;154.30;2252.80;;;;;;5022879;28;20113;-80
2022/12/28 08:36:16;;;;;;;10.45;4.60;;;154.20;2252.80;;;;;;5059526;28;20026;-83
2022/12/28 08:38:43;;;;;;;;;;;154.40;2252.80;;;;;;5025493;28;20512;-85
2022/12/28 08:41:15;;;;;;;10.10;4.40;;;154.30;2252.80;;;;;;5048198;28;19917;-86
2022/12/28 08:43:42;;;;;;;8.85;4.55;;;154.40;2252.80;;;;;;5027686;28;20037;-81
2022/12/28 08:46:15;;;;;;;9.80;4.75;;;154.50;2252.80;;;;;;5018311;28;20022;-82
2022/12/28 08:48:41;;;;;;;7.90;3.72;;;154.50;2252.80;;;;;;5029193;28;20478;-82
2022/12/28 08:51:10;;;;;;;13.60;4.72;;;179.20;2252.80;;;;;;5024986;28;20528;-81
2022/12/28 08:53:37;;;;;;;8.85;4.60;;;179.30;2252.80;;;;;;5019629;28;20022;-87
2022/12/28 08:56:11;;;;;;;12.45;4.78;;;179.40;2252.80;;;;;;5025330;28;20046;-84
2022/12/28 08:58:38;;;;;;;10.18;4.85;;;179.50;2252.80;;;;;;5025993;28;20474;-79
2022/12/28 09:01:09;;;;;;;8.70;4.05;;;179.40;2252.80;;;;;;5024559;28;20064;-82
2022/12/28 09:03:39;;;;;;;10.07;4.30;;;179.50;2252.80;;;;;;5014310;28;20466;-82
2022/12/28 09:06:06;;;;;;;10.43;4.93;;;179.50;2252.80;;;;;;5018531;28;20049;-80
2022/12/28 09:08:32;;;;;;;15.10;5.78;;;179.60;2252.80;;;;;;5018550;28;20033;-81
2022/12/28 09:11:01;;;;;;;;;;;179.50;2252.80;;;;;;5022464;28;20021;-81
2022/12/28 09:13:27;;;;;;;7.82;4.43;;;179.50;2252.80;;;;;;5041351;28;19912;-82
2022/12/28 09:16:01;;;;;;;;;;;179.50;2252.80;;;;;;5031961;28;20022;-80
2022/12/28 09:18:27;;;;;;;11.07;4.82;;;179.60;2252.80;;;;;;5023732;28;19956;-80
2022/12/28 09:20:53;;;;;;;11.00;5.57;;;179.60;2252.80;;;;;;5021398;28;20084;-79
2022/12/28 09:23:18;;;;;;;;;;;179.70;2252.80;;;;;;5025882;28;20562;-79
2022/12/28 09:25:44;;;;;;;13.13;5.43;;;179.80;2252.80;;;;;;5052969;28;20293;-78
2022/12/28 09:28:10;;;;;;;;;;;179.90;2252.80;;;;;;5027712;28;20155;-80
2022/12/28 09:30:36;;;;;;;10.88;5.10;;;179.80;2252.80;;;;;;5032498;28;20362;-80
2022/12/28 09:35:46;;;;;;;10.88;5.20;;;180.00;2252.80;;;;;;5030790;28;19912;-79
2022/12/28 09:38:11;;;;;;;;;;;204.90;2252.80;;;;;;5024683;28;20033;-80
2022/12/28 09:40:37;;;;;;;9.45;4.15;;;205.00;2252.80;;;;;;5020404;28;19913;-79
2022/12/28 09:43:07;;;;;;;;;;;205.20;2252.80;;;;;;5022602;28;20180;-80
2022/12/28 09:45:34;;;;;;;12.00;3.50;;;205.50;2252.80;;;;;;5026451;28;19909;-79
2022/12/28 09:48:09;;;;;;;8.27;3.47;;;205.40;2252.80;;;;;;5028160;28;20368;-81
2022/12/28 09:50:35;;;;;;;8.35;3.90;;;205.50;2252.80;;;;;;5059849;28;20124;-78
2022/12/28 09:53:06;;;;;;;;;;;205.70;2252.80;;;;;;5019865;28;20131;-80
2022/12/28 09:55:38;;;;;;;10.65;3.60;;;230.70;2252.80;;;;;;5029133;28;19921;-79
2022/12/28 09:58:12;;;;;;;8.73;4.35;;;230.90;2252.80;;;;;;5027681;28;20477;-79
2022/12/28 10:00:43;;;;;;;9.65;4.63;;;230.70;2252.80;;;;;;5026966;28;20045;-80
2022/12/28 10:03:18;;;;;;;11.70;4.53;;;231.10;2252.80;;;;;;5031307;28;20025;-80
2022/12/28 10:05:44;;;;;;;8.50;4.28;;;231.20;2176.00;;;;;;5022037;28;20088;-81
2022/12/28 10:08:14;;;;;;;8.55;4.75;;;256.20;2201.60;;;;;;5025023;28;20113;-81
2022/12/28 10:10:41;;;;;;;13.65;5.40;;;256.50;2150.40;;;;;;5027815;28;20483;-77
2022/12/28 10:13:20;;;;;;;15.60;5.75;;;256.50;2124.80;;;;;;5026412;28;20478;-79
2022/12/28 10:15:47;;;;;;;10.55;4.78;;;256.60;2124.80;;;;;;5027932;28;20045;-81
2022/12/28 10:18:14;;;;;;;8.48;4.20;;;256.50;2048.00;;;;;;5025270;28;20398;-85
2022/12/28 10:20:42;;;;;;;6.70;3.92;;;256.30;2073.60;;;;;;5065567;28;20099;-88
2022/12/28 10:23:14;;;;;;;8.85;3.80;;;256.30;2073.60;;;;;;5023239;28;20018;-79
2022/12/28 10:25:39;;;;;;;13.20;4.80;;;256.70;2022.40;;;;;;5018691;28;20486;-91
2022/12/28 10:28:09;;;;;;;8.60;4.32;;;256.80;2022.40;;;;;;5024591;28;20029;-85
2022/12/28 10:30:45;;;;;;;8.57;3.88;;;256.90;2022.40;;;;;;5063238;28;20029;-80
2022/12/28 10:33:20;;;;;;;;;;;281.60;1945.60;;;;;;5029332;28;20021;-81
2022/12/28 10:35:52;;;;;;;8.82;4.45;;;281.90;1971.20;;;;;;5021806;28;19906;-81
2022/12/28 10:38:37;;;;;;;10.32;5.40;;;282.10;1945.60;;;;;;5032663;28;20119;-79
2022/12/28 10:41:12;;;;;;;11.48;4.35;;;282.30;1920.00;;;;;;5022180;28;20040;-80
2022/12/28 10:43:45;;;;;;;9.50;4.47;;;282.50;1920.00;;;;;;5028210;28;20022;-80
2022/12/28 10:46:17;;;;;;;9.15;4.50;;;282.20;1894.40;;;;;;5020572;28;20033;-80
2022/12/28 10:48:54;;;;;;;7.15;3.85;;;282.40;1920.00;;;;;;5019201;28;20028;-83
2022/12/28 10:51:29;;;;;;;9.30;4.15;;;307.30;1920.00;;;;;;5020097;28;20036;-83
2022/12/28 10:53:56;;;;;;;8.02;3.92;;;307.40;1894.40;;;;;;5019924;28;20147;-89
2022/12/28 10:56:32;;;;;;;8.70;3.85;;;307.60;1868.80;;;;;;5021498;28;20026;-87
2022/12/28 10:59:09;;;;;;;9.77;4.35;;;307.90;1843.20;;;;;;5014638;28;20044;-81
2022/12/28 11:01:36;;;;;;;11.43;4.93;;;307.80;1817.60;;;;;;5040379;28;20112;-83
2022/12/28 11:04:17;;;;;;;7.82;3.55;;;307.60;1843.20;;;;;;5054072;28;20467;-80
2022/12/28 11:06:58;;;;;;;9.38;4.07;;;307.60;1817.60;;;;;;5018971;28;20034;-88
2022/12/28 11:09:30;;;;;;;8.38;3.95;;;307.60;1792.00;;;;;;5027332;28;20045;-84
2022/12/28 11:12:24;;;;;;;6.93;3.80;;;307.30;1843.20;;;;;;5057593;28;20022;-87
2022/12/28 11:14:51;;;;;;;8.30;3.50;;;307.50;1843.20;;;;;;5054819;28;20034;-81
2022/12/28 11:17:25;;;;;;;7.10;3.47;;;282.50;1817.60;;;;;;5022073;28;20021;-90
2022/12/28 11:19:56;;;;;;;6.80;3.58;;;307.30;1817.60;;;;;;5017869;28;20061;-85
2022/12/28 11:22:25;;;;;;;8.90;3.65;;;282.40;1792.00;;;;;;5027121;28;20391;-89
2022/12/28 11:24:51;;;;;;;8.57;3.33;;;307.40;1868.80;;;;;;5027839;28;20159;-84
2022/12/28 11:27:20;;;;;;;9.38;4.60;;;282.40;1843.20;;;;;;5029381;28;20079;-85
2022/12/28 11:29:48;;;;;;;9.73;3.85;;;307.20;1920.00;;;;;;5027961;28;20032;-81
2022/12/28 11:32:22;;;;;;;7.53;3.83;;;307.20;1868.80;;;;;;5030415;28;20027;-82
2022/12/28 11:34:48;;;;;;;12.90;4.45;;;282.50;1817.60;;;;;;5030322;28;20043;-84
2022/12/28 11:37:15;;;;;;;8.15;4.15;;;282.50;1843.20;;;;;;5025297;28;20109;-88
2022/12/28 11:39:48;;;;;;;8.77;3.80;;;282.30;1843.20;;;;;;5024749;28;20581;-80
2022/12/28 11:42:33;;;;;;;11.02;4.35;;;282.20;1843.20;;;;;;5031218;28;20068;-84
2022/12/28 11:45:00;;;;;;;8.32;3.58;;;282.10;1868.80;;;;;;5020553;28;20021;-82
2022/12/28 11:47:35;;;;;;;7.63;3.80;;;282.10;1843.20;;;;;;5020535;28;20032;-82
2022/12/28 11:50:37;;;;;;;6.97;3.00;;;282.00;1843.20;;;;;;5023394;28;20033;-89
2022/12/28 11:53:21;;;;;;;7.93;3.15;;;281.80;1817.60;;;;;;5025715;28;20416;-87
2022/12/28 11:56:04;;;;;;;6.03;3.55;;;281.70;1868.80;;;;;;5016153;28;20054;-75
2022/12/28 11:58:30;;;;;;;5.65;3.00;;;281.60;1868.80;;;;;;5028984;28;20491;-86
2022/12/28 12:00:58;;;;;;;4.88;2.15;;;256.90;1843.20;;;;;;5042453;28;20140;-87
2022/12/28 12:03:55;;;;;;;6.55;2.22;;;256.90;1817.60;;;;;;5028131;28;20014;-86
2022/12/28 12:06:44;;;;;;;4.43;2.00;;;256.80;1766.40;;;;;;5020690;28;20022;-81
2022/12/28 12:09:39;;;;;;;5.55;1.85;;;256.70;1817.60;;;;;;5018289;28;20415;-86
2022/12/28 12:12:13;;;;;;;9.60;2.08;;;256.60;1843.20;;;;;;5019250;28;20096;-81
2022/12/28 12:14:53;;;;;;;4.32;2.30;;;256.40;1817.60;;;;;;5024603;28;20076;-86
2022/12/28 12:17:35;;;;;;;5.15;2.13;;;256.50;1894.40;;;;;;5024249;28;20026;-84
2022/12/28 12:20:06;;;;;;;4.85;2.40;;;256.40;1920.00;;;;;;5028646;28;20044;-86
2022/12/28 12:22:46;;;;;;;5.47;2.47;;;256.60;1945.60;;;;;;5028243;28;20088;-86
2022/12/28 12:25:47;;;;;;;6.75;2.20;;;256.60;1920.00;;;;;;5030352;28;20486;-85
2022/12/28 12:28:58;;;;;;;6.70;3.45;;;256.60;1920.00;;;;;;5046793;28;20132;-85
2022/12/28 12:31:27;;;;;;;7.97;3.15;;;256.50;1945.60;;;;;;5017117;28;20061;-88
2022/12/28 12:34:04;;;;;;;7.28;2.72;;;256.40;1945.60;;;;;;5030566;28;20192;-86
2022/12/28 12:36:51;;;;;;;13.13;3.60;;;256.40;1971.20;;;;;;5022057;28;20490;-82
2022/12/28 12:39:49;;;;;;;9.25;3.17;;;256.40;1996.80;;;;;;5036117;28;20030;-83
2022/12/28 12:42:15;;;;;;;8.80;3.80;;;256.20;2048.00;;;;;;5029699;28;20021;-82
2022/12/28 12:44:52;;;;;;;7.95;3.65;;;256.40;1996.80;;;;;;5034833;28;20034;-84
2022/12/28 12:47:40;;;;;;;6.68;3.28;;;256.20;2022.40;;;;;;5029660;28;20033;-85
2022/12/28 12:50:20;;;;;;;7.88;4.20;;;256.20;1971.20;;;;;;5026816;28;20045;-80
2022/12/28 12:53:16;;;;;;;10.95;3.50;;;256.20;1945.60;;;;;;5017140;28;20060;-83
2022/12/28 12:55:57;;;;;;;7.32;3.17;;;256.20;1996.80;;;;;;5022941;28;20085;-81
2022/12/28 12:58:31;;;;;;;9.55;3.38;;;256.40;2022.40;;;;;;5027791;28;20117;-79
2022/12/28 13:01:25;;;;;;;5.00;2.75;;;256.30;1971.20;;;;;;5023817;28;20120;-78
2022/12/28 13:03:54;;;;;;;7.50;2.97;;;256.30;2022.40;;;;;;5023921;28;20053;-81
2022/12/28 13:06:25;;;;;;;7.28;3.08;;;256.30;1996.80;;;;;;5024374;28;20084;-82
2022/12/28 13:08:56;;;;;;;7.15;3.08;;;256.20;2022.40;;;;;;5025665;28;20487;-83
2022/12/28 13:11:23;;;;;;;5.68;2.50;;;256.10;2022.40;;;;;;5020602;28;20050;-84
2022/12/28 13:13:51;;;;;;;8.63;2.80;;;256.10;2022.40;;;;;;5030571;28;20032;-82
2022/12/28 13:16:21;;;;;;;8.32;3.05;;;256.00;2022.40;;;;;;5026532;28;20068;-83